sensor_id;sensor_type;location;lat;lon;timestamp;P1;durP1;ratioP1;P2;durP2;ratioP2
70780;SDS011;59514;48.810;2.134;2022-08-03T00:01:48;4.70;;;1.75;;
70780;SDS011;59514;48.810;2.134;2022-08-03T00:04:14;2.70;;;1.88;;
70780;SDS011;59514;48.810;2.134;2022-08-03T00:06:39;3.50;;;1.73;;
70780;SDS011;59514;48.810;2.134;2022-08-03T00:09:04;3.20;;;2.05;;
70780;SDS011;59514;48.810;2.134;2022-08-03T00:11:31;2.15;;;1.63;;
70780;SDS011;59514;48.810;2.134;2022-08-03T00:13:56;3.22;;;1.80;;
70780;SDS011;59514;48.810;2.134;2022-08-03T00:16:21;3.40;;;1.95;;
70780;SDS011;59514;48.810;2.134;2022-08-03T00:18:49;4.30;;;1.85;;
70780;SDS011;59514;48.810;2.134;2022-08-03T00:21:14;4.05;;;2.20;;
70780;SDS011;59514;48.810;2.134;2022-08-03T00:23:39;5.43;;;2.30;;
70780;SDS011;59514;48.810;2.134;2022-08-03T00:26:05;2.72;;;1.98;;
70780;SDS011;59514;48.810;2.134;2022-08-03T00:28:31;3.53;;;1.80;;
70780;SDS011;59514;48.810;2.134;2022-08-03T00:30:56;2.47;;;1.67;;
70780;SDS011;59514;48.810;2.134;2022-08-03T00:33:21;5.03;;;2.15;;
70780;SDS011;59514;48.810;2.134;2022-08-03T00:35:47;2.87;;;1.83;;
70780;SDS011;59514;48.810;2.134;2022-08-03T00:38:12;3.47;;;2.25;;
70780;SDS011;59514;48.810;2.134;2022-08-03T00:40:37;4.95;;;2.20;;
70780;SDS011;59514;48.810;2.134;2022-08-03T00:43:03;3.10;;;1.95;;
70780;SDS011;59514;48.810;2.134;2022-08-03T00:45:34;3.78;;;2.10;;
70780;SDS011;59514;48.810;2.134;2022-08-03T00:48:01;4.00;;;2.07;;
70780;SDS011;59514;48.810;2.134;2022-08-03T00:50:29;3.30;;;1.73;;
70780;SDS011;59514;48.810;2.134;2022-08-03T00:52:56;2.45;;;1.80;;
70780;SDS011;59514;48.810;2.134;2022-08-03T00:55:23;4.10;;;2.00;;
70780;SDS011;59514;48.810;2.134;2022-08-03T00:57:49;4.82;;;2.17;;
70780;SDS011;59514;48.810;2.134;2022-08-03T01:00:17;4.60;;;1.65;;
70780;SDS011;59514;48.810;2.134;2022-08-03T01:02:45;5.13;;;1.73;;
70780;SDS011;59514;48.810;2.134;2022-08-03T01:05:11;5.50;;;2.20;;
70780;SDS011;59514;48.810;2.134;2022-08-03T01:13:03;3.90;;;1.80;;
70780;SDS011;59514;48.810;2.134;2022-08-03T01:16:02;5.10;;;2.13;;
70780;SDS011;59514;48.810;2.134;2022-08-03T01:18:37;4.57;;;1.65;;
70780;SDS011;59514;48.810;2.134;2022-08-03T01:21:13;3.20;;;1.90;;
70780;SDS011;59514;48.810;2.134;2022-08-03T01:29:44;3.63;;;1.80;;
70780;SDS011;59514;48.810;2.134;2022-08-03T01:32:21;4.72;;;2.03;;
70780;SDS011;59514;48.810;2.134;2022-08-03T01:35:11;3.90;;;2.00;;
70780;SDS011;59514;48.810;2.134;2022-08-03T01:37:50;4.38;;;1.80;;
70780;SDS011;59514;48.810;2.134;2022-08-03T01:40:20;3.20;;;1.70;;
70780;SDS011;59514;48.810;2.134;2022-08-03T01:42:48;3.63;;;2.22;;
70780;SDS011;59514;48.810;2.134;2022-08-03T01:45:15;2.88;;;2.10;;
70780;SDS011;59514;48.810;2.134;2022-08-03T01:47:43;5.35;;;1.70;;
70780;SDS011;59514;48.810;2.134;2022-08-03T01:50:11;2.13;;;1.83;;
70780;SDS011;59514;48.810;2.134;2022-08-03T01:52:41;4.78;;;2.10;;
70780;SDS011;59514;48.810;2.134;2022-08-03T01:55:09;4.05;;;2.30;;
70780;SDS011;59514;48.810;2.134;2022-08-03T01:57:37;3.03;;;2.17;;
70780;SDS011;59514;48.810;2.134;2022-08-03T02:00:04;4.47;;;2.42;;
70780;SDS011;59514;48.810;2.134;2022-08-03T02:02:33;3.75;;;2.00;;
70780;SDS011;59514;48.810;2.134;2022-08-03T02:05:02;3.78;;;2.00;;
70780;SDS011;59514;48.810;2.134;2022-08-03T02:07:29;3.25;;;2.17;;
70780;SDS011;59514;48.810;2.134;2022-08-03T02:09:56;3.95;;;2.17;;
70780;SDS011;59514;48.810;2.134;2022-08-03T02:12:23;4.60;;;1.85;;
70780;SDS011;59514;48.810;2.134;2022-08-03T02:14:50;2.13;;;1.92;;
70780;SDS011;59514;48.810;2.134;2022-08-03T02:17:18;2.63;;;1.80;;
70780;SDS011;59514;48.810;2.134;2022-08-03T02:19:44;4.88;;;1.90;;
70780;SDS011;59514;48.810;2.134;2022-08-03T02:22:11;2.22;;;1.60;;
70780;SDS011;59514;48.810;2.134;2022-08-03T02:24:37;3.13;;;1.70;;
70780;SDS011;59514;48.810;2.134;2022-08-03T02:27:05;3.83;;;1.45;;
70780;SDS011;59514;48.810;2.134;2022-08-03T02:29:38;4.22;;;1.50;;
70780;SDS011;59514;48.810;2.134;2022-08-03T02:32:05;5.15;;;1.40;;
70780;SDS011;59514;48.810;2.134;2022-08-03T02:34:32;1.77;;;1.13;;
70780;SDS011;59514;48.810;2.134;2022-08-03T02:36:59;1.55;;;1.40;;
70780;SDS011;59514;48.810;2.134;2022-08-03T02:39:27;5.25;;;1.45;;
70780;SDS011;59514;48.810;2.134;2022-08-03T02:41:55;2.65;;;1.23;;
70780;SDS011;59514;48.810;2.134;2022-08-03T02:44:26;2.47;;;1.30;;
70780;SDS011;59514;48.810;2.134;2022-08-03T02:46:53;3.72;;;1.45;;
70780;SDS011;59514;48.810;2.134;2022-08-03T02:49:21;3.35;;;1.20;;
70780;SDS011;59514;48.810;2.134;2022-08-03T02:51:48;1.88;;;1.23;;
70780;SDS011;59514;48.810;2.134;2022-08-03T02:54:17;2.40;;;1.38;;
70780;SDS011;59514;48.810;2.134;2022-08-03T02:56:44;3.15;;;1.60;;
70780;SDS011;59514;48.810;2.134;2022-08-03T02:59:12;3.28;;;1.30;;
70780;SDS011;59514;48.810;2.134;2022-08-03T03:01:38;3.53;;;1.70;;
70780;SDS011;59514;48.810;2.134;2022-08-03T03:04:04;4.68;;;1.27;;
70780;SDS011;59514;48.810;2.134;2022-08-03T03:06:30;2.30;;;1.42;;
70780;SDS011;59514;48.810;2.134;2022-08-03T03:08:56;2.40;;;1.33;;
70780;SDS011;59514;48.810;2.134;2022-08-03T03:11:22;2.40;;;1.10;;
70780;SDS011;59514;48.810;2.134;2022-08-03T03:13:49;3.58;;;1.30;;
70780;SDS011;59514;48.810;2.134;2022-08-03T03:16:15;1.98;;;1.10;;
70780;SDS011;59514;48.810;2.134;2022-08-03T03:18:43;3.88;;;1.50;;
70780;SDS011;59514;48.810;2.134;2022-08-03T03:21:10;3.80;;;1.17;;
70780;SDS011;59514;48.810;2.134;2022-08-03T03:23:38;2.35;;;1.15;;
70780;SDS011;59514;48.810;2.134;2022-08-03T03:26:05;1.95;;;1.05;;
70780;SDS011;59514;48.810;2.134;2022-08-03T03:28:31;2.78;;;1.38;;
70780;SDS011;59514;48.810;2.134;2022-08-03T03:30:58;3.03;;;1.23;;
70780;SDS011;59514;48.810;2.134;2022-08-03T03:33:24;2.20;;;0.90;;
70780;SDS011;59514;48.810;2.134;2022-08-03T03:35:50;3.05;;;1.13;;
70780;SDS011;59514;48.810;2.134;2022-08-03T03:38:17;2.25;;;1.02;;
70780;SDS011;59514;48.810;2.134;2022-08-03T03:40:43;3.15;;;1.10;;
70780;SDS011;59514;48.810;2.134;2022-08-03T03:43:09;2.70;;;1.33;;
70780;SDS011;59514;48.810;2.134;2022-08-03T03:45:35;2.70;;;1.10;;
70780;SDS011;59514;48.810;2.134;2022-08-03T03:48:04;3.38;;;1.40;;
70780;SDS011;59514;48.810;2.134;2022-08-03T03:50:31;3.00;;;1.35;;
70780;SDS011;59514;48.810;2.134;2022-08-03T03:52:57;2.35;;;1.25;;
70780;SDS011;59514;48.810;2.134;2022-08-03T03:55:23;2.30;;;1.25;;
70780;SDS011;59514;48.810;2.134;2022-08-03T03:57:48;2.95;;;1.00;;
70780;SDS011;59514;48.810;2.134;2022-08-03T04:00:15;1.73;;;1.10;;
70780;SDS011;59514;48.810;2.134;2022-08-03T04:02:41;3.17;;;1.30;;
70780;SDS011;59514;48.810;2.134;2022-08-03T04:05:07;3.67;;;1.20;;
70780;SDS011;59514;48.810;2.134;2022-08-03T04:07:57;3.15;;;1.20;;
70780;SDS011;59514;48.810;2.134;2022-08-03T04:10:46;2.55;;;1.40;;
70780;SDS011;59514;48.810;2.134;2022-08-03T04:13:32;5.35;;;1.65;;
70780;SDS011;59514;48.810;2.134;2022-08-03T04:16:01;3.60;;;1.40;;
70780;SDS011;59514;48.810;2.134;2022-08-03T04:18:28;1.88;;;1.10;;
70780;SDS011;59514;48.810;2.134;2022-08-03T04:20:57;4.82;;;1.65;;
70780;SDS011;59514;48.810;2.134;2022-08-03T04:23:26;3.17;;;1.10;;
70780;SDS011;59514;48.810;2.134;2022-08-03T04:25:53;4.20;;;1.60;;
70780;SDS011;59514;48.810;2.134;2022-08-03T04:28:21;4.72;;;1.60;;
70780;SDS011;59514;48.810;2.134;2022-08-03T04:30:47;2.45;;;1.40;;
70780;SDS011;59514;48.810;2.134;2022-08-03T04:33:15;5.22;;;1.83;;
70780;SDS011;59514;48.810;2.134;2022-08-03T04:35:42;3.35;;;1.80;;
70780;SDS011;59514;48.810;2.134;2022-08-03T04:38:08;2.05;;;1.40;;
70780;SDS011;59514;48.810;2.134;2022-08-03T04:40:38;3.78;;;1.40;;
70780;SDS011;59514;48.810;2.134;2022-08-03T04:43:07;3.38;;;1.52;;
70780;SDS011;59514;48.810;2.134;2022-08-03T04:45:34;3.28;;;1.52;;
70780;SDS011;59514;48.810;2.134;2022-08-03T04:48:00;3.17;;;1.52;;
70780;SDS011;59514;48.810;2.134;2022-08-03T04:50:26;2.67;;;1.60;;
70780;SDS011;59514;48.810;2.134;2022-08-03T04:52:53;2.15;;;1.73;;
70780;SDS011;59514;48.810;2.134;2022-08-03T04:55:29;2.53;;;1.50;;
70780;SDS011;59514;48.810;2.134;2022-08-03T04:57:55;2.30;;;1.40;;
70780;SDS011;59514;48.810;2.134;2022-08-03T05:00:21;2.45;;;1.60;;
70780;SDS011;59514;48.810;2.134;2022-08-03T05:02:47;2.50;;;1.98;;
70780;SDS011;59514;48.810;2.134;2022-08-03T05:05:12;3.10;;;1.40;;
70780;SDS011;59514;48.810;2.134;2022-08-03T05:07:39;4.78;;;1.67;;
70780;SDS011;59514;48.810;2.134;2022-08-03T05:10:05;3.65;;;1.55;;
70780;SDS011;59514;48.810;2.134;2022-08-03T05:12:32;2.40;;;1.60;;
70780;SDS011;59514;48.810;2.134;2022-08-03T05:14:58;3.25;;;1.70;;
70780;SDS011;59514;48.810;2.134;2022-08-03T05:17:23;2.60;;;1.40;;
70780;SDS011;59514;48.810;2.134;2022-08-03T05:19:49;2.78;;;1.67;;
70780;SDS011;59514;48.810;2.134;2022-08-03T05:22:14;3.58;;;1.50;;
70780;SDS011;59514;48.810;2.134;2022-08-03T05:24:39;4.35;;;1.75;;
70780;SDS011;59514;48.810;2.134;2022-08-03T05:27:05;2.15;;;1.63;;
70780;SDS011;59514;48.810;2.134;2022-08-03T05:29:30;3.13;;;1.65;;
70780;SDS011;59514;48.810;2.134;2022-08-03T05:31:55;3.85;;;1.73;;
70780;SDS011;59514;48.810;2.134;2022-08-03T05:34:21;2.88;;;1.60;;
70780;SDS011;59514;48.810;2.134;2022-08-03T05:36:46;4.53;;;1.55;;
70780;SDS011;59514;48.810;2.134;2022-08-03T05:39:11;3.17;;;1.70;;
70780;SDS011;59514;48.810;2.134;2022-08-03T05:41:37;2.25;;;1.80;;
70780;SDS011;59514;48.810;2.134;2022-08-03T05:44:02;3.05;;;1.90;;
70780;SDS011;59514;48.810;2.134;2022-08-03T05:46:28;4.55;;;2.00;;
70780;SDS011;59514;48.810;2.134;2022-08-03T05:48:53;2.88;;;1.65;;
70780;SDS011;59514;48.810;2.134;2022-08-03T05:51:18;3.20;;;1.60;;
70780;SDS011;59514;48.810;2.134;2022-08-03T05:53:44;3.97;;;1.80;;
70780;SDS011;59514;48.810;2.134;2022-08-03T05:56:09;2.42;;;1.63;;
70780;SDS011;59514;48.810;2.134;2022-08-03T05:58:35;2.85;;;1.55;;
70780;SDS011;59514;48.810;2.134;2022-08-03T06:01:01;3.72;;;1.80;;
70780;SDS011;59514;48.810;2.134;2022-08-03T06:03:26;3.25;;;1.70;;
70780;SDS011;59514;48.810;2.134;2022-08-03T06:05:54;3.42;;;1.42;;
70780;SDS011;59514;48.810;2.134;2022-08-03T06:08:20;6.10;;;2.00;;
70780;SDS011;59514;48.810;2.134;2022-08-03T06:10:46;4.40;;;2.15;;
70780;SDS011;59514;48.810;2.134;2022-08-03T06:13:11;3.58;;;1.83;;
70780;SDS011;59514;48.810;2.134;2022-08-03T06:15:37;2.42;;;1.40;;
70780;SDS011;59514;48.810;2.134;2022-08-03T06:18:02;2.97;;;1.60;;
70780;SDS011;59514;48.810;2.134;2022-08-03T06:20:28;3.40;;;1.60;;
70780;SDS011;59514;48.810;2.134;2022-08-03T06:22:54;4.15;;;1.90;;
70780;SDS011;59514;48.810;2.134;2022-08-03T06:25:19;2.63;;;1.70;;
70780;SDS011;59514;48.810;2.134;2022-08-03T06:27:45;3.55;;;1.80;;
70780;SDS011;59514;48.810;2.134;2022-08-03T06:30:10;5.18;;;1.50;;
70780;SDS011;59514;48.810;2.134;2022-08-03T06:32:37;3.53;;;1.77;;
70780;SDS011;59514;48.810;2.134;2022-08-03T06:35:05;3.63;;;1.90;;
70780;SDS011;59514;48.810;2.134;2022-08-03T06:37:48;2.47;;;1.85;;
70780;SDS011;59514;48.810;2.134;2022-08-03T06:40:15;3.08;;;1.80;;
70780;SDS011;59514;48.810;2.134;2022-08-03T06:42:47;4.13;;;1.60;;
70780;SDS011;59514;48.810;2.134;2022-08-03T06:45:12;2.80;;;1.85;;
70780;SDS011;59514;48.810;2.134;2022-08-03T06:47:38;5.45;;;2.20;;
70780;SDS011;59514;48.810;2.134;2022-08-03T06:50:04;5.38;;;1.98;;
70780;SDS011;59514;48.810;2.134;2022-08-03T06:52:30;3.30;;;2.42;;
70780;SDS011;59514;48.810;2.134;2022-08-03T06:54:56;7.70;;;2.22;;
70780;SDS011;59514;48.810;2.134;2022-08-03T06:57:22;6.03;;;2.05;;
70780;SDS011;59514;48.810;2.134;2022-08-03T06:59:47;3.92;;;2.28;;
70780;SDS011;59514;48.810;2.134;2022-08-03T07:02:13;3.55;;;2.13;;
70780;SDS011;59514;48.810;2.134;2022-08-03T07:04:38;5.43;;;2.30;;
70780;SDS011;59514;48.810;2.134;2022-08-03T07:07:04;6.15;;;2.70;;
70780;SDS011;59514;48.810;2.134;2022-08-03T07:09:29;4.10;;;2.42;;
70780;SDS011;59514;48.810;2.134;2022-08-03T07:11:54;4.22;;;2.53;;
70780;SDS011;59514;48.810;2.134;2022-08-03T07:14:21;5.43;;;1.80;;
70780;SDS011;59514;48.810;2.134;2022-08-03T07:16:46;4.80;;;2.20;;
70780;SDS011;59514;48.810;2.134;2022-08-03T07:19:12;3.65;;;2.17;;
70780;SDS011;59514;48.810;2.134;2022-08-03T07:21:37;4.00;;;2.10;;
70780;SDS011;59514;48.810;2.134;2022-08-03T07:24:03;4.73;;;2.10;;
70780;SDS011;59514;48.810;2.134;2022-08-03T07:26:28;2.97;;;1.70;;
70780;SDS011;59514;48.810;2.134;2022-08-03T07:28:54;4.57;;;1.90;;
70780;SDS011;59514;48.810;2.134;2022-08-03T07:31:19;3.30;;;1.88;;
70780;SDS011;59514;48.810;2.134;2022-08-03T07:33:44;3.15;;;2.05;;
70780;SDS011;59514;48.810;2.134;2022-08-03T07:36:10;4.75;;;2.13;;
70780;SDS011;59514;48.810;2.134;2022-08-03T07:38:35;4.32;;;1.90;;
70780;SDS011;59514;48.810;2.134;2022-08-03T07:41:01;5.80;;;2.05;;
70780;SDS011;59514;48.810;2.134;2022-08-03T07:43:27;3.83;;;1.73;;
70780;SDS011;59514;48.810;2.134;2022-08-03T07:45:52;4.03;;;2.13;;
70780;SDS011;59514;48.810;2.134;2022-08-03T07:48:17;4.07;;;1.95;;
70780;SDS011;59514;48.810;2.134;2022-08-03T07:50:43;5.03;;;2.33;;
70780;SDS011;59514;48.810;2.134;2022-08-03T07:53:08;2.22;;;1.50;;
70780;SDS011;59514;48.810;2.134;2022-08-03T07:55:34;3.47;;;1.70;;
70780;SDS011;59514;48.810;2.134;2022-08-03T07:58:06;4.90;;;2.10;;
70780;SDS011;59514;48.810;2.134;2022-08-03T08:00:36;3.22;;;1.98;;
70780;SDS011;59514;48.810;2.134;2022-08-03T08:03:02;4.82;;;2.08;;
70780;SDS011;59514;48.810;2.134;2022-08-03T08:05:29;6.53;;;1.92;;
70780;SDS011;59514;48.810;2.134;2022-08-03T08:07:54;5.03;;;1.77;;
70780;SDS011;59514;48.810;2.134;2022-08-03T08:10:20;5.22;;;1.77;;
70780;SDS011;59514;48.810;2.134;2022-08-03T08:12:46;5.50;;;2.00;;
70780;SDS011;59514;48.810;2.134;2022-08-03T08:15:12;5.35;;;1.73;;
70780;SDS011;59514;48.810;2.134;2022-08-03T08:17:41;5.13;;;1.67;;
70780;SDS011;59514;48.810;2.134;2022-08-03T08:20:08;4.20;;;2.00;;
70780;SDS011;59514;48.810;2.134;2022-08-03T08:22:35;3.28;;;1.70;;
70780;SDS011;59514;48.810;2.134;2022-08-03T08:25:00;3.97;;;1.85;;
70780;SDS011;59514;48.810;2.134;2022-08-03T08:27:31;3.63;;;1.83;;
70780;SDS011;59514;48.810;2.134;2022-08-03T08:29:56;5.75;;;2.00;;
70780;SDS011;59514;48.810;2.134;2022-08-03T08:32:22;5.03;;;1.60;;
70780;SDS011;59514;48.810;2.134;2022-08-03T08:34:47;3.25;;;1.90;;
70780;SDS011;59514;48.810;2.134;2022-08-03T08:37:12;5.63;;;1.90;;
70780;SDS011;59514;48.810;2.134;2022-08-03T08:39:38;3.38;;;1.60;;
70780;SDS011;59514;48.810;2.134;2022-08-03T08:42:03;4.63;;;1.80;;
70780;SDS011;59514;48.810;2.134;2022-08-03T08:44:29;6.38;;;2.00;;
70780;SDS011;59514;48.810;2.134;2022-08-03T08:46:54;4.70;;;2.40;;
70780;SDS011;59514;48.810;2.134;2022-08-03T08:49:23;4.93;;;1.70;;
70780;SDS011;59514;48.810;2.134;2022-08-03T08:51:52;5.20;;;1.70;;
70780;SDS011;59514;48.810;2.134;2022-08-03T08:54:19;4.88;;;1.52;;
70780;SDS011;59514;48.810;2.134;2022-08-03T08:56:46;7.15;;;1.90;;
70780;SDS011;59514;48.810;2.134;2022-08-03T08:59:16;4.00;;;1.80;;
70780;SDS011;59514;48.810;2.134;2022-08-03T09:01:42;8.48;;;2.08;;
70780;SDS011;59514;48.810;2.134;2022-08-03T09:04:07;4.07;;;1.58;;
70780;SDS011;59514;48.810;2.134;2022-08-03T09:06:33;3.88;;;1.67;;
70780;SDS011;59514;48.810;2.134;2022-08-03T09:08:59;4.38;;;1.70;;
70780;SDS011;59514;48.810;2.134;2022-08-03T09:11:25;6.20;;;1.70;;
70780;SDS011;59514;48.810;2.134;2022-08-03T09:13:50;3.10;;;1.80;;
70780;SDS011;59514;48.810;2.134;2022-08-03T09:16:17;4.70;;;2.53;;
70780;SDS011;59514;48.810;2.134;2022-08-03T09:18:45;4.60;;;2.72;;
70780;SDS011;59514;48.810;2.134;2022-08-03T09:21:13;3.72;;;1.52;;
70780;SDS011;59514;48.810;2.134;2022-08-03T09:23:45;6.55;;;1.52;;
70780;SDS011;59514;48.810;2.134;2022-08-03T09:26:18;3.40;;;1.48;;
70780;SDS011;59514;48.810;2.134;2022-08-03T09:28:58;2.72;;;1.42;;
70780;SDS011;59514;48.810;2.134;2022-08-03T09:31:28;3.78;;;1.60;;
70780;SDS011;59514;48.810;2.134;2022-08-03T09:33:55;2.33;;;1.38;;
70780;SDS011;59514;48.810;2.134;2022-08-03T09:36:38;2.65;;;1.90;;
70780;SDS011;59514;48.810;2.134;2022-08-03T09:39:11;2.28;;;1.48;;
70780;SDS011;59514;48.810;2.134;2022-08-03T09:41:39;3.38;;;1.20;;
70780;SDS011;59514;48.810;2.134;2022-08-03T09:44:06;4.03;;;1.83;;
70780;SDS011;59514;48.810;2.134;2022-08-03T09:46:46;4.60;;;1.50;;
70780;SDS011;59514;48.810;2.134;2022-08-03T09:49:20;2.83;;;1.50;;
70780;SDS011;59514;48.810;2.134;2022-08-03T09:51:46;3.47;;;1.30;;
70780;SDS011;59514;48.810;2.134;2022-08-03T09:54:12;4.22;;;1.40;;
70780;SDS011;59514;48.810;2.134;2022-08-03T09:56:41;3.10;;;1.27;;
70780;SDS011;59514;48.810;2.134;2022-08-03T09:59:07;4.15;;;1.30;;
70780;SDS011;59514;48.810;2.134;2022-08-03T10:01:33;3.35;;;1.40;;
70780;SDS011;59514;48.810;2.134;2022-08-03T10:03:59;3.80;;;1.38;;
70780;SDS011;59514;48.810;2.134;2022-08-03T10:06:25;3.17;;;1.48;;
70780;SDS011;59514;48.810;2.134;2022-08-03T10:11:33;2.47;;;1.20;;
70780;SDS011;59514;48.810;2.134;2022-08-03T10:14:06;3.30;;;1.20;;
70780;SDS011;59514;48.810;2.134;2022-08-03T10:16:34;1.88;;;1.10;;
70780;SDS011;59514;48.810;2.134;2022-08-03T10:19:02;3.03;;;1.10;;
70780;SDS011;59514;48.810;2.134;2022-08-03T10:21:31;2.80;;;1.38;;
70780;SDS011;59514;48.810;2.134;2022-08-03T10:24:02;3.35;;;1.35;;
70780;SDS011;59514;48.810;2.134;2022-08-03T10:26:33;3.65;;;1.40;;
70780;SDS011;59514;48.810;2.134;2022-08-03T10:29:01;3.45;;;1.20;;
70780;SDS011;59514;48.810;2.134;2022-08-03T10:31:38;2.95;;;1.40;;
70780;SDS011;59514;48.810;2.134;2022-08-03T10:34:10;1.27;;;1.02;;
70780;SDS011;59514;48.810;2.134;2022-08-03T10:36:42;4.07;;;1.27;;
70780;SDS011;59514;48.810;2.134;2022-08-03T10:39:09;4.55;;;1.30;;
70780;SDS011;59514;48.810;2.134;2022-08-03T10:41:38;3.72;;;1.60;;
70780;SDS011;59514;48.810;2.134;2022-08-03T10:44:09;1.75;;;1.20;;
70780;SDS011;59514;48.810;2.134;2022-08-03T10:46:41;2.03;;;1.20;;
70780;SDS011;59514;48.810;2.134;2022-08-03T10:49:09;4.65;;;1.40;;
70780;SDS011;59514;48.810;2.134;2022-08-03T10:51:37;2.72;;;1.10;;
70780;SDS011;59514;48.810;2.134;2022-08-03T10:54:03;3.53;;;1.23;;
70780;SDS011;59514;48.810;2.134;2022-08-03T10:59:16;3.03;;;1.20;;
70780;SDS011;59514;48.810;2.134;2022-08-03T11:01:48;2.63;;;1.17;;
70780;SDS011;59514;48.810;2.134;2022-08-03T11:04:18;2.22;;;0.82;;
70780;SDS011;59514;48.810;2.134;2022-08-03T11:06:45;2.35;;;1.30;;
70780;SDS011;59514;48.810;2.134;2022-08-03T11:11:41;2.60;;;1.23;;
70780;SDS011;59514;48.810;2.134;2022-08-03T11:16:44;4.18;;;1.10;;
70780;SDS011;59514;48.810;2.134;2022-08-03T11:19:14;2.65;;;1.15;;
70780;SDS011;59514;48.810;2.134;2022-08-03T11:24:58;1.95;;;0.90;;
70780;SDS011;59514;48.810;2.134;2022-08-03T11:33:10;3.95;;;1.70;;
70780;SDS011;59514;48.810;2.134;2022-08-03T11:35:18;2.55;;;1.00;;
70780;SDS011;59514;48.810;2.134;2022-08-03T11:43:04;4.03;;;1.10;;
70780;SDS011;59514;48.810;2.134;2022-08-03T11:45:59;1.55;;;1.13;;
70780;SDS011;59514;48.810;2.134;2022-08-03T11:51:05;2.72;;;0.95;;
70780;SDS011;59514;48.810;2.134;2022-08-03T11:53:32;2.75;;;1.00;;
70780;SDS011;59514;48.810;2.134;2022-08-03T11:55:58;1.95;;;1.15;;
70780;SDS011;59514;48.810;2.134;2022-08-03T11:58:24;4.20;;;1.15;;
70780;SDS011;59514;48.810;2.134;2022-08-03T12:00:50;2.80;;;1.00;;
70780;SDS011;59514;48.810;2.134;2022-08-03T12:03:17;2.78;;;1.17;;
70780;SDS011;59514;48.810;2.134;2022-08-03T12:05:47;1.40;;;0.90;;
70780;SDS011;59514;48.810;2.134;2022-08-03T12:08:38;2.03;;;1.00;;
70780;SDS011;59514;48.810;2.134;2022-08-03T12:11:03;1.83;;;0.90;;
70780;SDS011;59514;48.810;2.134;2022-08-03T12:13:42;5.35;;;1.25;;
70780;SDS011;59514;48.810;2.134;2022-08-03T12:16:22;3.25;;;1.17;;
70780;SDS011;59514;48.810;2.134;2022-08-03T12:19:06;2.95;;;0.85;;
70780;SDS011;59514;48.810;2.134;2022-08-03T12:21:32;4.72;;;1.27;;
70780;SDS011;59514;48.810;2.134;2022-08-03T12:23:58;2.38;;;1.35;;
70780;SDS011;59514;48.810;2.134;2022-08-03T12:28:54;2.63;;;0.98;;
70780;SDS011;59514;48.810;2.134;2022-08-03T12:31:20;3.70;;;1.02;;
70780;SDS011;59514;48.810;2.134;2022-08-03T12:33:56;4.07;;;0.90;;
70780;SDS011;59514;48.810;2.134;2022-08-03T12:36:22;1.85;;;0.80;;
70780;SDS011;59514;48.810;2.134;2022-08-03T12:38:55;1.92;;;0.90;;
70780;SDS011;59514;48.810;2.134;2022-08-03T12:41:26;2.72;;;0.98;;
70780;SDS011;59514;48.810;2.134;2022-08-03T12:43:55;2.42;;;0.80;;
70780;SDS011;59514;48.810;2.134;2022-08-03T12:46:20;3.42;;;0.90;;
70780;SDS011;59514;48.810;2.134;2022-08-03T12:51:34;3.65;;;3.10;;
70780;SDS011;59514;48.810;2.134;2022-08-03T12:54:01;3.90;;;2.33;;
70780;SDS011;59514;48.810;2.134;2022-08-03T12:56:27;3.00;;;1.20;;
70780;SDS011;59514;48.810;2.134;2022-08-03T12:58:52;2.35;;;1.20;;
70780;SDS011;59514;48.810;2.134;2022-08-03T13:01:18;1.23;;;1.00;;
70780;SDS011;59514;48.810;2.134;2022-08-03T13:03:46;3.58;;;0.82;;
70780;SDS011;59514;48.810;2.134;2022-08-03T13:06:13;2.13;;;0.80;;
70780;SDS011;59514;48.810;2.134;2022-08-03T13:08:39;2.60;;;0.85;;
70780;SDS011;59514;48.810;2.134;2022-08-03T13:11:24;4.47;;;1.08;;
70780;SDS011;59514;48.810;2.134;2022-08-03T13:13:51;3.13;;;0.90;;
70780;SDS011;59514;48.810;2.134;2022-08-03T13:16:18;1.48;;;0.88;;
70780;SDS011;59514;48.810;2.134;2022-08-03T13:18:45;2.25;;;0.80;;
70780;SDS011;59514;48.810;2.134;2022-08-03T13:21:13;0.98;;;0.70;;
70780;SDS011;59514;48.810;2.134;2022-08-03T13:23:39;2.08;;;0.82;;
70780;SDS011;59514;48.810;2.134;2022-08-03T13:26:05;1.02;;;0.90;;
70780;SDS011;59514;48.810;2.134;2022-08-03T13:28:30;2.78;;;0.75;;
70780;SDS011;59514;48.810;2.134;2022-08-03T13:30:56;2.50;;;0.87;;
70780;SDS011;59514;48.810;2.134;2022-08-03T13:33:21;2.67;;;0.90;;
70780;SDS011;59514;48.810;2.134;2022-08-03T13:35:46;1.53;;;0.90;;
70780;SDS011;59514;48.810;2.134;2022-08-03T13:38:11;2.73;;;1.10;;
70780;SDS011;59514;48.810;2.134;2022-08-03T13:40:37;1.57;;;0.97;;
70780;SDS011;59514;48.810;2.134;2022-08-03T13:43:02;1.80;;;0.70;;
70780;SDS011;59514;48.810;2.134;2022-08-03T13:45:28;2.63;;;0.90;;
70780;SDS011;59514;48.810;2.134;2022-08-03T13:47:53;3.55;;;0.70;;
70780;SDS011;59514;48.810;2.134;2022-08-03T13:50:19;2.90;;;0.80;;
70780;SDS011;59514;48.810;2.134;2022-08-03T13:52:44;1.37;;;0.73;;
70780;SDS011;59514;48.810;2.134;2022-08-03T13:55:12;0.77;;;0.77;;
70780;SDS011;59514;48.810;2.134;2022-08-03T13:57:37;1.02;;;0.85;;
70780;SDS011;59514;48.810;2.134;2022-08-03T14:00:04;1.33;;;0.70;;
70780;SDS011;59514;48.810;2.134;2022-08-03T14:02:30;2.65;;;0.80;;
70780;SDS011;59514;48.810;2.134;2022-08-03T14:04:55;2.73;;;0.90;;
70780;SDS011;59514;48.810;2.134;2022-08-03T14:07:21;3.42;;;1.00;;
70780;SDS011;59514;48.810;2.134;2022-08-03T14:09:46;3.00;;;0.85;;
70780;SDS011;59514;48.810;2.134;2022-08-03T14:12:12;2.45;;;0.85;;
70780;SDS011;59514;48.810;2.134;2022-08-03T14:14:37;4.88;;;0.80;;
70780;SDS011;59514;48.810;2.134;2022-08-03T14:17:02;1.15;;;0.80;;
70780;SDS011;59514;48.810;2.134;2022-08-03T14:19:28;5.22;;;1.05;;
70780;SDS011;59514;48.810;2.134;2022-08-03T14:21:53;1.88;;;0.95;;
70780;SDS011;59514;48.810;2.134;2022-08-03T14:24:19;2.75;;;0.55;;
70780;SDS011;59514;48.810;2.134;2022-08-03T14:26:44;1.53;;;0.97;;
70780;SDS011;59514;48.810;2.134;2022-08-03T14:29:09;1.00;;;0.83;;
70780;SDS011;59514;48.810;2.134;2022-08-03T14:31:35;1.92;;;1.10;;
70780;SDS011;59514;48.810;2.134;2022-08-03T14:34:01;3.33;;;1.13;;
70780;SDS011;59514;48.810;2.134;2022-08-03T14:36:26;3.03;;;0.80;;
70780;SDS011;59514;48.810;2.134;2022-08-03T14:38:52;4.60;;;0.88;;
70780;SDS011;59514;48.810;2.134;2022-08-03T14:41:17;1.67;;;0.90;;
70780;SDS011;59514;48.810;2.134;2022-08-03T14:43:42;3.13;;;0.90;;
70780;SDS011;59514;48.810;2.134;2022-08-03T14:46:08;4.13;;;1.00;;
70780;SDS011;59514;48.810;2.134;2022-08-03T14:48:33;1.70;;;0.80;;
70780;SDS011;59514;48.810;2.134;2022-08-03T14:50:59;1.93;;;0.83;;
70780;SDS011;59514;48.810;2.134;2022-08-03T14:53:24;6.28;;;1.00;;
70780;SDS011;59514;48.810;2.134;2022-08-03T14:55:49;1.70;;;0.90;;
70780;SDS011;59514;48.810;2.134;2022-08-03T14:58:20;1.55;;;0.90;;
70780;SDS011;59514;48.810;2.134;2022-08-03T15:00:46;1.42;;;0.80;;
70780;SDS011;59514;48.810;2.134;2022-08-03T15:03:11;1.47;;;0.90;;
70780;SDS011;59514;48.810;2.134;2022-08-03T15:05:36;2.37;;;0.70;;
70780;SDS011;59514;48.810;2.134;2022-08-03T15:08:02;2.67;;;1.40;;
70780;SDS011;59514;48.810;2.134;2022-08-03T15:10:27;1.83;;;0.80;;
70780;SDS011;59514;48.810;2.134;2022-08-03T15:12:52;1.85;;;0.80;;
70780;SDS011;59514;48.810;2.134;2022-08-03T15:15:19;1.17;;;0.90;;
70780;SDS011;59514;48.810;2.134;2022-08-03T15:17:44;1.73;;;0.98;;
70780;SDS011;59514;48.810;2.134;2022-08-03T15:20:10;1.83;;;0.80;;
70780;SDS011;59514;48.810;2.134;2022-08-03T15:22:37;1.38;;;0.63;;
70780;SDS011;59514;48.810;2.134;2022-08-03T15:25:04;2.88;;;1.10;;
70780;SDS011;59514;48.810;2.134;2022-08-03T15:27:30;2.85;;;0.80;;
70780;SDS011;59514;48.810;2.134;2022-08-03T15:29:55;2.42;;;0.80;;
70780;SDS011;59514;48.810;2.134;2022-08-03T15:32:20;1.00;;;0.90;;
70780;SDS011;59514;48.810;2.134;2022-08-03T15:34:46;1.65;;;0.90;;